createdAt,value
2019-05-30T00:01:05.714Z,3.17
2019-05-30T00:03:34.119Z,2.90
2019-05-30T00:06:02.550Z,3.37
2019-05-30T00:08:30.967Z,2.93
2019-05-30T00:11:00.532Z,2.67
2019-05-30T00:13:29.082Z,3.20
2019-05-30T00:15:58.648Z,3.13
2019-05-30T00:18:27.208Z,3.47
2019-05-30T00:20:56.675Z,3.70
2019-05-30T00:23:25.284Z,3.60
2019-05-30T00:25:55.135Z,3.33
2019-05-30T00:28:23.705Z,3.20
2019-05-30T00:30:52.150Z,3.40
2019-05-30T00:33:20.556Z,3.50
2019-05-30T00:35:48.965Z,3.47
2019-05-30T00:38:17.391Z,3.40
2019-05-30T00:40:45.797Z,3.20
2019-05-30T00:43:14.231Z,3.10
2019-05-30T00:45:42.639Z,3.57
2019-05-30T00:48:11.067Z,3.53
2019-05-30T00:50:39.474Z,2.97
2019-05-30T00:53:07.905Z,3.30
2019-05-30T00:55:36.315Z,2.90
2019-05-30T00:58:04.891Z,3.77
2019-05-30T01:00:43.177Z,3.57
2019-05-30T01:03:06.473Z,3.43
2019-05-30T01:05:33.697Z,3.33
2019-05-30T01:08:03.318Z,3.60
2019-05-30T01:10:31.788Z,3.37
2019-05-30T01:13:01.357Z,3.67
2019-05-30T01:15:29.983Z,3.43
2019-05-30T01:17:59.063Z,3.87
2019-05-30T01:20:27.573Z,3.80
2019-05-30T01:22:57.004Z,4.00
2019-05-30T01:25:25.485Z,3.60
2019-05-30T01:27:53.923Z,4.03
2019-05-30T01:30:22.406Z,3.97
2019-05-30T01:32:50.834Z,3.60
2019-05-30T01:35:19.314Z,3.83
2019-05-30T01:37:47.743Z,3.83
2019-05-30T01:40:16.329Z,3.40
2019-05-30T01:42:44.763Z,4.07
2019-05-30T01:45:13.226Z,3.60
2019-05-30T01:47:41.673Z,4.07
2019-05-30T01:50:10.799Z,3.90
2019-05-30T01:52:39.349Z,4.27
2019-05-30T01:55:09.144Z,3.90
2019-05-30T01:57:37.941Z,4.00
2019-05-30T02:00:21.287Z,3.83
2019-05-30T02:02:47.203Z,4.13
2019-05-30T02:05:15.974Z,3.70
2019-05-30T02:07:44.381Z,4.23
2019-05-30T02:10:15.442Z,3.60
2019-05-30T02:12:43.848Z,3.70
2019-05-30T02:15:12.345Z,3.60
2019-05-30T02:17:40.819Z,3.77
2019-05-30T02:20:10.145Z,4.57
2019-05-30T02:22:38.677Z,3.53
2019-05-30T02:25:08.258Z,4.27
2019-05-30T02:27:36.737Z,3.80
2019-05-30T02:30:10.771Z,3.80
2019-05-30T02:32:37.424Z,3.63
2019-05-30T02:35:07.872Z,3.67
2019-05-30T02:37:36.922Z,4.10
2019-05-30T02:40:09.949Z,4.10
2019-05-30T02:42:36.886Z,3.97
2019-05-30T02:45:07.981Z,3.70
2019-05-30T02:47:37.364Z,4.57
2019-05-30T02:50:11.487Z,3.90
2019-05-30T02:52:40.223Z,4.20
2019-05-30T02:55:10.945Z,3.80
2019-05-30T02:57:38.949Z,4.07
2019-05-30T03:00:12.446Z,3.97
2019-05-30T03:02:38.219Z,4.30
2019-05-30T03:05:10.914Z,4.00
2019-05-30T03:07:37.191Z,4.60
2019-05-30T03:10:09.415Z,3.83
2019-05-30T03:12:37.431Z,4.10
2019-05-30T03:15:09.251Z,4.73
2019-05-30T03:17:37.133Z,4.50
2019-05-30T03:20:18.012Z,4.90
2019-05-30T03:22:36.569Z,4.63
2019-05-30T03:25:07.443Z,4.77
2019-05-30T03:27:35.870Z,4.53
2019-05-30T03:30:13.451Z,5.00
2019-05-30T03:33:04.117Z,4.90
2019-05-30T03:35:15.244Z,4.97
2019-05-30T03:37:37.642Z,4.70
2019-05-30T03:40:07.185Z,4.50
2019-05-30T03:42:35.689Z,4.47
2019-05-30T03:45:08.403Z,4.30
2019-05-30T03:47:38.367Z,4.80
2019-05-30T03:50:09.049Z,4.83
2019-05-30T03:52:37.448Z,4.73
2019-05-30T03:55:09.240Z,4.60
2019-05-30T03:57:43.349Z,4.43
2019-05-30T04:00:20.767Z,4.53
2019-05-30T04:02:58.320Z,4.50
2019-05-30T04:05:37.740Z,4.23
2019-05-30T04:08:07.234Z,4.43
2019-05-30T04:10:39.192Z,4.40
2019-05-30T04:13:18.768Z,4.67
2019-05-30T04:15:46.704Z,4.40
2019-05-30T04:18:16.477Z,4.00
2019-05-30T04:20:45.127Z,4.90
2019-05-30T04:23:14.819Z,4.10
2019-05-30T04:25:43.916Z,3.73
2019-05-30T04:28:14.012Z,4.27
2019-05-30T04:30:42.528Z,4.60
2019-05-30T04:33:19.381Z,3.80
2019-05-30T04:35:41.086Z,3.73
2019-05-30T04:38:10.468Z,3.40
2019-05-30T04:40:38.949Z,3.87
2019-05-30T04:43:09.023Z,3.77
2019-05-30T04:45:37.536Z,3.93
2019-05-30T04:48:06.030Z,3.30
2019-05-30T04:50:34.440Z,3.80
2019-05-30T04:53:02.893Z,3.70
2019-05-30T04:55:31.279Z,3.83
2019-05-30T04:57:59.712Z,3.10
2019-05-30T05:00:28.133Z,3.50
2019-05-30T05:02:56.558Z,3.67
2019-05-30T05:05:27.040Z,3.50
2019-05-30T05:07:55.136Z,3.80
2019-05-30T05:10:23.539Z,3.47
2019-05-30T05:12:51.967Z,3.57
2019-05-30T05:15:20.749Z,3.50
2019-05-30T05:17:49.349Z,3.43
2019-05-30T05:20:19.363Z,3.10
2019-05-30T05:22:47.910Z,3.13
2019-05-30T05:25:17.441Z,3.30
2019-05-30T05:27:46.017Z,2.97
2019-05-30T05:30:16.016Z,3.30
2019-05-30T05:32:44.564Z,2.73
2019-05-30T05:35:13.115Z,2.90
2019-05-30T05:37:41.515Z,3.30
2019-05-30T05:40:10.213Z,2.83
2019-05-30T05:42:38.626Z,2.90
2019-05-30T05:45:07.792Z,2.80
2019-05-30T05:47:36.202Z,2.83
2019-05-30T05:50:06.178Z,2.60
2019-05-30T05:52:34.576Z,2.50
2019-05-30T05:55:03.152Z,2.83
2019-05-30T05:57:31.588Z,2.50
2019-05-30T06:00:00.067Z,2.60
2019-05-30T06:02:28.474Z,2.37
2019-05-30T06:04:56.906Z,2.70
2019-05-30T06:07:25.399Z,2.60
2019-05-30T06:09:53.834Z,2.43
2019-05-30T06:12:22.236Z,2.40
2019-05-30T06:14:50.670Z,2.43
2019-05-30T06:17:19.087Z,2.80
2019-05-30T06:19:47.524Z,2.57
2019-05-30T06:22:15.924Z,2.67
2019-05-30T06:24:44.358Z,2.70
2019-05-30T06:27:12.764Z,2.60
2019-05-30T06:29:41.196Z,2.50
2019-05-30T06:32:09.607Z,2.30
2019-05-30T06:34:39.620Z,3.23
2019-05-30T06:37:11.801Z,2.50
2019-05-30T06:39:38.335Z,3.10
2019-05-30T06:42:06.723Z,2.60
2019-05-30T06:44:35.154Z,2.60
2019-05-30T06:47:03.556Z,2.20
2019-05-30T06:49:31.993Z,2.40
2019-05-30T06:52:00.390Z,2.20
2019-05-30T06:54:29.504Z,2.20
2019-05-30T06:56:58.103Z,2.43
2019-05-30T06:59:27.651Z,2.70
2019-05-30T07:01:56.190Z,2.80
2019-05-30T07:04:25.501Z,2.90
2019-05-30T07:06:54.981Z,2.30
2019-05-30T07:09:24.872Z,2.90
2019-05-30T07:11:53.446Z,2.70
2019-05-30T07:14:23.018Z,2.77
2019-05-30T07:16:51.531Z,2.37
2019-05-30T07:19:19.939Z,2.23
2019-05-30T07:21:48.372Z,2.60
2019-05-30T07:24:16.776Z,2.47
2019-05-30T07:26:45.210Z,2.33
2019-05-30T07:29:13.618Z,2.20
2019-05-30T07:31:42.057Z,2.33
2019-05-30T07:34:10.462Z,2.50
2019-05-30T07:36:38.888Z,2.70
2019-05-30T07:39:08.535Z,2.43
2019-05-30T07:41:37.332Z,2.50
2019-05-30T07:44:05.800Z,2.70
2019-05-30T07:46:35.127Z,2.60
2019-05-30T07:49:03.788Z,2.80
2019-05-30T07:51:32.684Z,2.57
2019-05-30T07:54:01.199Z,2.73
2019-05-30T07:56:29.634Z,2.77
2019-05-30T07:58:58.039Z,2.53
2019-05-30T08:01:26.463Z,3.10
2019-05-30T08:03:54.867Z,2.47
2019-05-30T08:06:23.303Z,2.60
2019-05-30T08:08:51.711Z,2.40
2019-05-30T08:11:20.141Z,2.60
2019-05-30T08:13:48.554Z,2.87
2019-05-30T08:16:16.958Z,2.90
2019-05-30T08:18:45.387Z,3.00
2019-05-30T08:21:13.789Z,2.97
2019-05-30T08:23:42.294Z,2.77
2019-05-30T08:26:10.698Z,3.13
2019-05-30T08:28:42.473Z,2.80
2019-05-30T08:31:09.260Z,3.00
2019-05-30T08:33:37.723Z,3.50
2019-05-30T08:36:06.153Z,2.70
2019-05-30T08:38:35.319Z,3.40
2019-05-30T08:41:03.987Z,2.97
2019-05-30T08:43:33.399Z,2.90
2019-05-30T08:46:01.899Z,3.80
2019-05-30T08:48:30.332Z,3.33
2019-05-30T08:50:58.780Z,2.80
2019-05-30T08:53:27.273Z,3.43
2019-05-30T08:55:55.809Z,2.87
2019-05-30T08:58:24.277Z,2.63
2019-05-30T09:00:52.684Z,3.00
2019-05-30T09:03:21.117Z,3.10
2019-05-30T09:06:02.686Z,2.90
2019-05-30T09:08:20.542Z,3.07
2019-05-30T09:10:48.951Z,3.33
2019-05-30T09:13:17.399Z,3.90
2019-05-30T09:15:46.979Z,3.00
2019-05-30T09:18:15.670Z,3.37
2019-05-30T09:20:45.202Z,3.50
2019-05-30T09:23:13.785Z,2.80
2019-05-30T09:25:42.193Z,3.30
2019-05-30T09:28:10.618Z,3.00
2019-05-30T09:30:39.890Z,3.00
2019-05-30T09:33:09.248Z,3.03
2019-05-30T09:35:38.496Z,2.90
2019-05-30T09:38:07.951Z,2.70
2019-05-30T09:40:36.361Z,3.10
2019-05-30T09:43:04.927Z,2.80
2019-05-30T09:45:34.168Z,2.90
2019-05-30T09:48:02.568Z,2.83
2019-05-30T09:50:31.002Z,2.70
2019-05-30T09:52:59.412Z,2.40
2019-05-30T09:55:27.912Z,2.90
2019-05-30T09:57:56.323Z,2.53
2019-05-30T10:00:26.441Z,2.70
2019-05-30T10:02:54.857Z,2.77
2019-05-30T10:05:24.640Z,2.53
2019-05-30T10:07:53.427Z,2.93
2019-05-30T10:10:22.692Z,3.20
2019-05-30T10:12:52.493Z,2.77
2019-05-30T10:15:21.444Z,2.30
2019-05-30T10:17:52.331Z,2.33
2019-05-30T10:20:20.243Z,2.30
2019-05-30T10:22:50.496Z,2.90
2019-05-30T10:25:18.879Z,2.70
2019-05-30T10:27:48.867Z,2.90
2019-05-30T10:30:17.979Z,2.60
2019-05-30T10:32:48.186Z,2.47
2019-05-30T10:35:16.830Z,2.50
2019-05-30T10:37:46.750Z,2.80
2019-05-30T10:40:16.995Z,2.30
2019-05-30T10:42:47.296Z,2.80
2019-05-30T10:45:18.726Z,3.10
2019-05-30T10:47:47.504Z,2.80
2019-05-30T10:50:17.179Z,3.30
2019-05-30T10:52:45.590Z,3.30
2019-05-30T10:55:14.979Z,3.00
2019-05-30T10:57:43.455Z,3.20
2019-05-30T11:00:14.369Z,3.20
2019-05-30T11:02:42.864Z,3.23
2019-05-30T11:05:12.538Z,3.20
2019-05-30T11:08:03.443Z,2.87
2019-05-30T11:10:37.848Z,2.70
2019-05-30T11:13:08.336Z,3.70
2019-05-30T11:15:36.790Z,3.53
2019-05-30T11:18:05.491Z,2.93
2019-05-30T11:20:33.892Z,3.30
2019-05-30T11:23:02.326Z,3.30
2019-05-30T11:25:31.770Z,3.53
2019-05-30T11:28:00.200Z,2.60
2019-05-30T11:30:29.339Z,3.80
2019-05-30T11:32:59.124Z,3.00
2019-05-30T11:35:27.962Z,3.20
2019-05-30T11:37:57.258Z,3.03
2019-05-30T11:40:25.754Z,2.83
2019-05-30T11:42:55.351Z,3.00
2019-05-30T11:45:24.315Z,2.53
2019-05-30T11:47:53.791Z,3.10
2019-05-30T11:50:22.569Z,3.20
2019-05-30T11:52:51.690Z,2.67
2019-05-30T11:55:20.343Z,2.83
2019-05-30T11:57:49.869Z,2.90
2019-05-30T12:00:18.742Z,2.80
2019-05-30T12:02:47.165Z,2.90
2019-05-30T12:05:16.005Z,2.87
2019-05-30T12:07:44.504Z,2.63
2019-05-30T12:10:13.247Z,3.13
2019-05-30T12:12:41.672Z,3.23
2019-05-30T12:15:10.607Z,3.07
2019-05-30T12:17:39.040Z,3.60
2019-05-30T12:20:09.083Z,3.10
2019-05-30T12:22:37.517Z,3.20
2019-05-30T12:25:07.566Z,3.47
2019-05-30T12:27:36.072Z,3.47
2019-05-30T12:30:06.788Z,3.10
2019-05-30T12:32:35.196Z,3.40
2019-05-30T12:35:04.912Z,3.60
2019-05-30T12:37:33.320Z,3.00
2019-05-30T12:40:03.088Z,3.87
2019-05-30T12:42:31.637Z,3.20
2019-05-30T12:45:05.462Z,3.10
2019-05-30T12:47:30.203Z,3.93
2019-05-30T12:49:59.323Z,3.47
2019-05-30T12:52:27.811Z,3.50
2019-05-30T12:54:56.419Z,3.37
2019-05-30T12:57:24.827Z,3.60
2019-05-30T12:59:54.631Z,3.13
2019-05-30T13:02:23.140Z,3.87
2019-05-30T13:04:51.570Z,3.27
2019-05-30T13:07:19.972Z,3.10
2019-05-30T13:09:48.406Z,3.33
2019-05-30T13:12:16.817Z,3.20
2019-05-30T13:14:45.242Z,3.10
2019-05-30T13:17:13.650Z,3.23
2019-05-30T13:19:42.160Z,3.50
2019-05-30T13:22:10.555Z,4.07
2019-05-30T13:24:38.985Z,3.63
2019-05-30T13:27:07.409Z,3.60
2019-05-30T13:29:35.834Z,4.13
2019-05-30T13:32:04.625Z,3.73
2019-05-30T13:34:33.158Z,3.53
2019-05-30T13:37:02.907Z,3.20
2019-05-30T13:39:31.539Z,3.00
2019-05-30T13:41:59.943Z,3.70
2019-05-30T13:44:28.375Z,2.93
2019-05-30T13:46:56.778Z,3.20
2019-05-30T13:49:25.208Z,3.03
2019-05-30T13:51:53.615Z,3.07
2019-05-30T13:54:22.041Z,3.17
2019-05-30T13:56:50.449Z,3.17
2019-05-30T13:59:18.881Z,3.00
2019-05-30T14:01:47.285Z,3.00
2019-05-30T14:04:15.738Z,3.07
2019-05-30T14:06:44.145Z,2.93
2019-05-30T14:09:12.554Z,2.80
2019-05-30T14:11:40.986Z,3.00
2019-05-30T14:14:09.390Z,2.90
2019-05-30T14:16:37.823Z,3.30
2019-05-30T14:19:10.830Z,3.00
2019-05-30T14:21:36.389Z,3.50
2019-05-30T14:24:05.344Z,2.80
2019-05-30T14:26:33.869Z,3.30
2019-05-30T14:29:03.631Z,2.80
2019-05-30T14:31:32.355Z,3.13
2019-05-30T14:34:01.982Z,2.90
2019-05-30T14:36:30.572Z,3.07
2019-05-30T14:38:59.250Z,3.73
2019-05-30T14:41:27.689Z,3.80
2019-05-30T14:43:56.108Z,4.17
2019-05-30T14:46:24.529Z,4.03
2019-05-30T14:48:52.938Z,4.10
2019-05-30T14:51:21.383Z,3.70
2019-05-30T14:53:49.798Z,3.70
2019-05-30T14:56:18.231Z,4.20
2019-05-30T14:58:46.712Z,3.73
2019-05-30T15:01:15.149Z,4.00
2019-05-30T15:03:43.559Z,4.00
2019-05-30T15:06:15.341Z,4.30
2019-05-30T15:08:42.321Z,4.50
2019-05-30T15:11:11.746Z,4.03
2019-05-30T15:13:40.253Z,3.83
2019-05-30T15:16:08.847Z,4.07
2019-05-30T15:18:37.283Z,3.70
2019-05-30T15:21:06.277Z,3.83
2019-05-30T15:23:34.819Z,4.47
2019-05-30T15:26:03.567Z,3.50
2019-05-30T15:28:32.002Z,3.60
2019-05-30T15:31:00.414Z,4.00
2019-05-30T15:33:28.846Z,3.93
2019-05-30T15:35:57.254Z,4.57
2019-05-30T15:38:25.702Z,3.87
2019-05-30T15:40:54.106Z,4.07
2019-05-30T15:43:22.537Z,4.10
2019-05-30T15:45:50.948Z,3.90
2019-05-30T15:48:19.390Z,4.60
2019-05-30T15:50:47.806Z,4.47
2019-05-30T15:53:17.265Z,4.03
2019-05-30T15:55:45.904Z,3.80
2019-05-30T15:58:15.617Z,4.40
2019-05-30T16:00:44.238Z,4.23
2019-05-30T16:03:12.675Z,3.93
2019-05-30T16:05:41.085Z,3.90
2019-05-30T16:08:10.656Z,3.90
2019-05-30T16:10:39.108Z,3.50
2019-05-30T16:13:07.547Z,3.80
2019-05-30T16:15:35.953Z,3.53
2019-05-30T16:18:04.530Z,4.10
2019-05-30T16:20:32.930Z,3.87
2019-05-30T16:23:01.369Z,3.67
2019-05-30T16:25:29.772Z,4.20
2019-05-30T16:27:58.207Z,3.60
2019-05-30T16:30:27.104Z,4.07
2019-05-30T16:32:55.700Z,3.90
2019-05-30T16:35:24.106Z,3.93
2019-05-30T16:37:52.539Z,4.00
2019-05-30T16:40:22.320Z,3.90
2019-05-30T16:42:50.906Z,4.03
2019-05-30T16:45:24.629Z,4.10
2019-05-30T16:47:50.234Z,3.50
2019-05-30T16:50:22.761Z,3.83
2019-05-30T16:52:51.337Z,3.77
2019-05-30T16:55:19.845Z,4.03
2019-05-30T16:57:48.250Z,3.60
2019-05-30T17:00:17.656Z,4.17
2019-05-30T17:02:46.142Z,3.70
2019-05-30T17:05:15.857Z,3.80
2019-05-30T17:07:44.327Z,3.70
2019-05-30T17:10:23.393Z,3.90
2019-05-30T17:12:43.927Z,4.60
2019-05-30T17:15:13.525Z,4.33
2019-05-30T17:17:41.940Z,3.90
2019-05-30T17:20:12.813Z,4.30
2019-05-30T17:22:41.236Z,4.73
2019-05-30T17:25:11.605Z,4.60
2019-05-30T17:27:40.012Z,4.37
2019-05-30T17:30:10.747Z,5.10
2019-05-30T17:32:39.165Z,4.93
2019-05-30T17:35:08.135Z,4.70
2019-05-30T17:37:36.551Z,4.90
2019-05-30T17:40:06.995Z,5.30
2019-05-30T17:42:35.566Z,5.47
2019-05-30T17:45:06.587Z,5.60
2019-05-30T17:47:34.985Z,5.33
2019-05-30T17:50:04.864Z,5.50
2019-05-30T17:52:33.269Z,5.50
2019-05-30T17:55:01.703Z,5.40
2019-05-30T17:57:30.302Z,5.30
2019-05-30T17:59:58.760Z,5.60
2019-05-30T18:02:28.489Z,5.63
2019-05-30T18:04:57.090Z,5.60
2019-05-30T18:07:25.517Z,5.53
2019-05-30T18:09:55.306Z,5.57
2019-05-30T18:12:25.097Z,6.07
2019-05-30T18:14:53.626Z,5.97
2019-05-30T18:17:23.077Z,5.70
2019-05-30T18:19:51.734Z,5.63
2019-05-30T18:22:21.438Z,6.17
2019-05-30T18:24:50.038Z,6.40
2019-05-30T18:27:18.471Z,6.83
2019-05-30T18:29:46.889Z,6.63
2019-05-30T18:32:15.386Z,6.93
2019-05-30T18:34:43.797Z,7.23
2019-05-30T18:37:12.245Z,7.50
2019-05-30T18:39:40.650Z,6.97
2019-05-30T18:42:09.154Z,7.30
2019-05-30T18:44:37.564Z,7.50
2019-05-30T18:47:05.994Z,8.00
2019-05-30T18:49:34.406Z,7.57
2019-05-30T18:52:02.845Z,8.50
2019-05-30T18:54:31.265Z,7.50
2019-05-30T18:56:59.690Z,7.93
2019-05-30T18:59:29.025Z,8.07
2019-05-30T19:01:57.508Z,7.60
2019-05-30T19:04:25.931Z,7.87
2019-05-30T19:06:54.346Z,8.47
2019-05-30T19:09:22.762Z,7.00
2019-05-30T19:11:51.194Z,7.97
2019-05-30T19:14:19.606Z,8.30
2019-05-30T19:16:48.035Z,7.30
2019-05-30T19:19:16.444Z,7.70
2019-05-30T19:21:44.887Z,8.00
2019-05-30T19:24:13.320Z,8.17
2019-05-30T19:26:41.729Z,8.40
2019-05-30T19:29:10.171Z,8.03
2019-05-30T19:31:38.588Z,8.20
2019-05-30T19:34:07.023Z,8.07
2019-05-30T19:36:35.428Z,8.00
2019-05-30T19:39:05.328Z,8.70
2019-05-30T19:41:45.326Z,8.70
2019-05-30T19:44:04.240Z,8.70
2019-05-30T19:46:32.648Z,8.70
2019-05-30T19:49:01.086Z,8.30
2019-05-30T19:51:31.352Z,9.07
2019-05-30T19:53:59.647Z,8.50
2019-05-30T19:56:29.114Z,9.13
2019-05-30T19:58:57.676Z,9.37
2019-05-30T20:01:26.087Z,9.43
2019-05-30T20:03:54.515Z,9.77
2019-05-30T20:06:24.818Z,9.07
2019-05-30T20:08:55.853Z,8.90
2019-05-30T20:11:23.223Z,9.83
2019-05-30T20:13:51.664Z,10.50
2019-05-30T20:16:20.087Z,10.47
2019-05-30T20:18:48.527Z,11.07
2019-05-30T20:21:16.937Z,10.10
2019-05-30T20:23:52.443Z,11.17
2019-05-30T20:26:15.519Z,10.50
2019-05-30T20:28:43.953Z,9.73
2019-05-30T20:31:12.369Z,10.73
2019-05-30T20:33:40.814Z,12.00
2019-05-30T20:36:09.225Z,11.07
2019-05-30T20:38:38.651Z,11.07
2019-05-30T20:41:07.153Z,10.93
2019-05-30T20:43:36.883Z,11.30
2019-05-30T20:46:05.553Z,11.00
2019-05-30T20:48:34.962Z,11.10
2019-05-30T20:51:03.395Z,11.53
2019-05-30T20:53:31.831Z,11.83
2019-05-30T20:56:00.247Z,11.00
2019-05-30T20:58:28.681Z,11.53
2019-05-30T21:00:57.102Z,12.00
2019-05-30T21:03:25.510Z,11.37
2019-05-30T21:05:54.313Z,12.33
2019-05-30T21:08:22.796Z,11.10
2019-05-30T21:10:51.911Z,12.03
2019-05-30T21:13:20.394Z,12.83
2019-05-30T21:15:49.198Z,11.40
2019-05-30T21:18:19.549Z,12.33
2019-05-30T21:20:48.071Z,12.50
2019-05-30T21:23:16.480Z,12.20
2019-05-30T21:25:45.233Z,13.20
2019-05-30T21:28:13.726Z,13.17
2019-05-30T21:30:43.322Z,14.17
2019-05-30T21:33:11.951Z,13.67
2019-05-30T21:35:41.689Z,13.60
2019-05-30T21:38:10.365Z,13.60
2019-05-30T21:40:39.202Z,13.50
2019-05-30T21:43:08.794Z,13.20
2019-05-30T21:45:38.406Z,14.20
2019-05-30T21:48:07.030Z,14.47
2019-05-30T21:50:35.481Z,13.87
2019-05-30T21:53:04.181Z,15.23
2019-05-30T21:55:32.678Z,14.73
2019-05-30T21:58:01.094Z,15.20
2019-05-30T22:00:48.570Z,14.57
2019-05-30T22:03:17.311Z,15.07
2019-05-30T22:05:47.930Z,15.10
2019-05-30T22:08:15.898Z,15.27
2019-05-30T22:10:45.396Z,15.30
2019-05-30T22:13:13.927Z,15.33
2019-05-30T22:15:43.652Z,14.97
2019-05-30T22:18:12.123Z,15.53
2019-05-30T22:20:41.722Z,15.80
2019-05-30T22:23:11.099Z,16.40
2019-05-30T22:25:39.679Z,16.07
2019-05-30T22:28:08.091Z,16.53
2019-05-30T22:30:36.591Z,15.90
2019-05-30T22:33:05.091Z,15.90
2019-05-30T22:35:33.530Z,16.70
2019-05-30T22:38:01.948Z,16.30
2019-05-30T22:40:30.390Z,15.77
2019-05-30T22:42:58.798Z,15.97
2019-05-30T22:45:27.239Z,15.63
2019-05-30T22:47:56.779Z,16.50
2019-05-30T22:50:25.365Z,15.87
2019-05-30T22:52:57.205Z,15.60
2019-05-30T22:55:25.636Z,16.00
2019-05-30T22:57:54.080Z,16.90
2019-05-30T23:00:22.563Z,16.07
2019-05-30T23:02:51.938Z,16.30
2019-05-30T23:05:20.567Z,16.57
2019-05-30T23:07:49.418Z,16.13
2019-05-30T23:10:18.037Z,15.90
2019-05-30T23:12:47.640Z,16.30
2019-05-30T23:15:16.339Z,16.00
2019-05-30T23:17:44.779Z,16.20
2019-05-30T23:20:13.261Z,16.17
2019-05-30T23:22:41.699Z,16.50
2019-05-30T23:25:10.462Z,15.60
2019-05-30T23:27:38.897Z,16.60
2019-05-30T23:30:07.750Z,17.10
2019-05-30T23:32:36.189Z,14.90
2019-05-30T23:35:05.341Z,15.90
2019-05-30T23:37:33.844Z,16.53
2019-05-30T23:40:02.328Z,16.37
2019-05-30T23:42:30.764Z,16.77
2019-05-30T23:44:59.611Z,16.30
2019-05-30T23:47:28.282Z,17.33
2019-05-30T23:49:58.095Z,16.13
2019-05-30T23:52:26.674Z,16.10
2019-05-30T23:54:56.226Z,15.93
2019-05-30T23:57:24.906Z,17.00
2019-05-30T23:59:54.643Z,16.50
